Time;durP1;ratioP1;P1;durP2;ratioP2;P2;SDS_P1;SDS_P2;PMS_P1;PMS_P2;Temp;Humidity;BMP_temperature;BMP_pressure;BME280_temperature;BME280_humidity;BME280_pressure;Samples;Min_cycle;Max_cycle;Signal;HPM_P1;HPM_P2
2023/01/26 00:02:16;;;;;;;23.40;10.82;;;0.90;99.90;;;;;;4949628;29;20208;-70
2023/01/26 00:04:42;;;;;;;20.55;10.55;;;0.90;99.90;;;;;;4949069;29;20219;-70
2023/01/26 00:07:09;;;;;;;20.50;9.73;;;1.00;99.90;;;;;;4948673;28;20208;-70
2023/01/26 00:09:35;;;;;;;17.50;8.77;;;1.00;99.90;;;;;;4948559;29;20208;-69
2023/01/26 00:12:02;;;;;;;22.27;10.73;;;0.90;99.90;;;;;;4949166;29;20635;-70
2023/01/26 00:14:48;;;;;;;14.77;9.10;;;0.90;99.90;;;;;;4949420;29;20208;-69
2023/01/26 00:17:24;;;;;;;17.10;9.70;;;0.80;99.90;;;;;;4949473;29;20225;-69
2023/01/26 00:19:52;;;;;;;21.27;8.10;;;0.80;99.90;;;;;;4948031;29;20259;-70
2023/01/26 00:22:19;;;;;;;18.90;9.50;;;0.80;99.90;;;;;;4949344;29;20624;-70
2023/01/26 00:24:46;;;;;;;19.75;9.43;;;0.70;99.90;;;;;;4948420;28;20215;-69
2023/01/26 00:27:12;;;;;;;14.15;7.88;;;0.70;99.90;;;;;;4949045;29;20205;-69
2023/01/26 00:29:39;;;;;;;18.60;10.30;;;0.60;99.90;;;;;;4948020;29;20208;-70
2023/01/26 00:32:06;;;;;;;17.23;9.10;;;0.70;99.90;;;;;;4948757;29;20208;-70
2023/01/26 00:34:34;;;;;;;17.42;10.68;;;0.70;99.90;;;;;;4948884;28;20208;-70
2023/01/26 00:37:01;;;;;;;24.65;10.18;;;0.70;99.90;;;;;;4948265;28;20236;-70
2023/01/26 00:39:27;;;;;;;20.08;10.38;;;0.70;99.90;;;;;;4948215;29;20208;-70
2023/01/26 00:42:08;;;;;;;15.60;8.95;;;0.70;99.90;;;;;;4948355;29;20209;-70
2023/01/26 00:44:36;;;;;;;19.95;8.73;;;0.70;99.90;;;;;;4947653;28;20231;-70
2023/01/26 00:47:02;;;;;;;19.50;9.75;;;0.70;99.90;;;;;;4948584;29;20219;-70
2023/01/26 00:49:29;;;;;;;21.30;9.32;;;0.60;99.90;;;;;;4947585;28;20635;-70
2023/01/26 00:51:57;;;;;;;16.52;8.93;;;0.60;99.90;;;;;;4948859;29;20208;-70
2023/01/26 00:54:24;;;;;;;15.13;9.00;;;0.70;99.90;;;;;;4948307;28;20539;-70
2023/01/26 00:56:50;;;;;;;16.50;9.45;;;0.60;99.90;;;;;;4948029;29;20873;-70
2023/01/26 00:59:17;;;;;;;19.23;9.63;;;0.60;99.90;;;;;;4948075;29;20238;-70
2023/01/26 01:01:44;;;;;;;14.55;7.53;;;0.70;99.90;;;;;;4947975;29;20204;-70
2023/01/26 01:04:11;;;;;;;18.75;10.00;;;0.60;99.90;;;;;;4948815;29;20239;-70
2023/01/26 01:06:37;;;;;;;19.88;10.20;;;0.60;99.90;;;;;;4947949;28;20234;-69
2023/01/26 01:09:05;;;;;;;17.83;8.80;;;0.60;99.90;;;;;;4948241;29;20209;-70
2023/01/26 01:11:32;;;;;;;13.20;8.77;;;0.70;99.90;;;;;;4948484;29;20219;-70
2023/01/26 01:13:59;;;;;;;19.02;9.25;;;0.70;99.90;;;;;;4948004;29;20691;-70
2023/01/26 01:16:27;;;;;;;17.63;9.32;;;0.70;99.90;;;;;;4948500;29;20228;-70
2023/01/26 01:18:54;;;;;;;18.92;10.23;;;0.70;99.90;;;;;;4947284;29;20722;-70
2023/01/26 01:21:23;;;;;;;19.45;9.45;;;0.60;99.90;;;;;;4948123;28;20638;-70
2023/01/26 01:23:49;;;;;;;15.57;8.23;;;0.60;99.90;;;;;;4947732;29;20215;-70
2023/01/26 01:26:17;;;;;;;20.05;9.65;;;0.60;99.90;;;;;;4948075;29;20225;-70
2023/01/26 01:28:45;;;;;;;20.77;9.98;;;0.60;99.90;;;;;;4947487;28;20211;-70
2023/01/26 01:31:14;;;;;;;16.40;10.32;;;0.60;99.90;;;;;;4947792;29;20212;-70
2023/01/26 01:33:41;;;;;;;24.08;9.75;;;0.70;99.90;;;;;;4947832;29;20215;-70
2023/01/26 01:36:10;;;;;;;20.30;10.88;;;0.70;99.90;;;;;;4948020;29;20231;-70
2023/01/26 01:38:37;;;;;;;13.88;8.18;;;0.70;99.90;;;;;;4947924;29;20469;-70
2023/01/26 01:41:04;;;;;;;22.73;10.88;;;0.70;99.90;;;;;;4948583;29;20212;-70
2023/01/26 01:43:32;;;;;;;13.93;7.70;;;0.70;99.90;;;;;;4948984;28;20215;-70
2023/01/26 01:46:00;;;;;;;20.58;8.30;;;0.70;99.90;;;;;;4949557;29;20237;-70
2023/01/26 01:48:30;;;;;;;19.95;8.98;;;0.60;99.90;;;;;;4950488;29;20224;-70
2023/01/26 01:51:04;;;;;;;15.13;8.98;;;0.60;99.90;;;;;;4951115;29;20209;-70
2023/01/26 01:53:35;;;;;;;19.02;9.52;;;0.60;99.90;;;;;;4951065;29;20216;-69
2023/01/26 01:56:05;;;;;;;18.65;10.00;;;0.60;99.90;;;;;;4951523;28;20224;-69
2023/01/26 01:58:37;;;;;;;16.42;8.40;;;0.60;99.90;;;;;;4953712;29;20228;-69
2023/01/26 02:01:04;;;;;;;15.27;7.78;;;0.50;99.90;;;;;;4954401;29;20204;-70
2023/01/26 02:03:32;;;;;;;19.80;9.52;;;0.60;99.90;;;;;;4954554;29;20604;-70
2023/01/26 02:06:03;;;;;;;20.10;8.35;;;0.60;99.90;;;;;;4954372;29;20231;-69
2023/01/26 02:08:34;;;;;;;22.60;10.05;;;0.60;99.90;;;;;;4953384;29;20691;-69
2023/01/26 02:11:05;;;;;;;21.27;10.73;;;0.60;99.90;;;;;;4954875;29;20200;-70
2023/01/26 02:13:34;;;;;;;16.60;9.05;;;0.70;99.90;;;;;;4953559;29;20220;-69
2023/01/26 02:16:01;;;;;;;16.88;9.30;;;0.70;99.90;;;;;;4954292;29;20295;-70
2023/01/26 02:18:28;;;;;;;17.58;9.88;;;0.60;99.90;;;;;;4953812;29;20522;-69
2023/01/26 02:20:59;;;;;;;12.98;8.55;;;0.60;99.90;;;;;;4954054;29;20266;-69
2023/01/26 02:23:40;;;;;;;15.55;8.90;;;0.60;99.90;;;;;;4954459;29;20212;-69
2023/01/26 02:26:12;;;;;;;18.80;10.05;;;0.60;99.90;;;;;;4954396;29;20250;-69
2023/01/26 02:28:39;;;;;;;18.10;9.32;;;0.50;99.90;;;;;;4953660;29;20686;-70
2023/01/26 02:31:06;;;;;;;14.45;8.60;;;0.50;99.90;;;;;;4953959;29;20212;-70
2023/01/26 02:33:34;;;;;;;20.10;10.15;;;0.60;99.90;;;;;;4953588;29;20212;-70
2023/01/26 02:36:02;;;;;;;19.30;8.63;;;0.60;99.90;;;;;;4954334;29;20232;-70
2023/01/26 02:38:33;;;;;;;20.38;9.45;;;0.50;99.90;;;;;;4953163;29;20229;-70
2023/01/26 02:41:04;;;;;;;13.23;8.00;;;0.50;99.90;;;;;;4954574;29;20211;-70
2023/01/26 02:43:32;;;;;;;22.00;10.55;;;0.50;99.90;;;;;;4953257;29;20205;-70
2023/01/26 02:45:58;;;;;;;18.55;9.73;;;0.50;99.90;;;;;;4953717;29;20236;-70
2023/01/26 02:51:09;;;;;;;15.68;8.48;;;0.50;99.90;;;;;;4953509;29;20283;-69
2023/01/26 02:53:36;;;;;;;15.75;8.93;;;0.50;99.90;;;;;;4953801;28;20200;-70
2023/01/26 02:56:02;;;;;;;22.45;10.88;;;0.50;99.90;;;;;;4953718;29;20240;-70
2023/01/26 02:58:29;;;;;;;21.90;10.70;;;0.50;99.90;;;;;;4952483;29;20228;-69
2023/01/26 03:00:57;;;;;;;17.25;8.43;;;0.50;99.90;;;;;;4953979;29;20449;-69
2023/01/26 03:03:25;;;;;;;14.52;8.60;;;0.60;99.90;;;;;;4953204;29;20219;-69
2023/01/26 03:05:52;;;;;;;16.80;8.02;;;0.60;99.90;;;;;;4953464;29;20637;-70
2023/01/26 03:08:19;;;;;;;16.60;8.10;;;0.60;99.90;;;;;;4952187;28;20215;-69
2023/01/26 03:10:46;;;;;;;10.13;7.05;;;0.60;99.90;;;;;;4952987;29;20217;-70
2023/01/26 03:13:14;;;;;;;16.17;8.43;;;0.60;99.90;;;;;;4953319;29;20681;-70
2023/01/26 03:15:51;;;;;;;20.08;9.07;;;0.60;99.90;;;;;;4953238;29;20920;-69
2023/01/26 03:29:22;;;;;;;13.48;7.47;;;0.50;99.90;;;;;;4963920;28;20283;-70
2023/01/26 03:31:48;;;;;;;15.07;9.35;;;0.50;99.90;;;;;;4972475;28;20212;-69
2023/01/26 03:34:16;;;;;;;18.95;8.15;;;0.50;99.90;;;;;;4971866;28;20211;-69
2023/01/26 03:36:43;;;;;;;16.02;7.40;;;0.50;99.90;;;;;;4972137;28;20318;-70
2023/01/26 03:41:06;;;;;;;17.30;8.93;;;0.50;99.90;;;;;;4971614;28;20224;-71
2023/01/26 03:58:23;;;;;;;10.07;5.72;;;0.50;99.90;;;;;;4970488;28;20273;-70
2023/01/26 04:00:50;;;;;;;10.60;5.50;;;0.50;99.90;;;;;;4972112;28;20227;-70
2023/01/26 04:08:47;;;;;;;9.77;5.00;;;0.50;99.90;;;;;;4971062;28;20701;-69
2023/01/26 04:11:14;;;;;;;8.38;5.45;;;0.50;99.90;;;;;;4971267;28;20226;-70
2023/01/26 04:21:55;;;;;;;15.90;6.60;;;0.50;99.90;;;;;;4971751;28;20578;-70
2023/01/26 04:24:23;;;;;;;10.55;6.05;;;0.50;99.90;;;;;;4971833;28;20579;-70
2023/01/26 04:26:50;;;;;;;12.25;7.47;;;0.50;99.90;;;;;;4972135;28;20227;-69
2023/01/26 04:29:17;;;;;;;12.20;7.07;;;0.50;99.90;;;;;;4971225;28;20203;-69
2023/01/26 04:31:44;;;;;;;12.50;5.90;;;0.50;99.90;;;;;;4971760;28;20215;-69
2023/01/26 04:34:13;;;;;;;13.27;6.35;;;0.40;99.90;;;;;;4957239;28;20196;-69
2023/01/26 04:36:41;;;;;;;13.07;6.57;;;0.40;99.90;;;;;;4951818;29;20220;-70
2023/01/26 04:39:09;;;;;;;16.40;7.60;;;0.40;99.90;;;;;;4951590;29;20216;-69
2023/01/26 04:41:36;;;;;;;11.73;6.03;;;0.40;99.90;;;;;;4951839;29;20205;-70
2023/01/26 04:44:03;;;;;;;12.13;6.22;;;0.50;99.90;;;;;;4952257;29;20205;-70
2023/01/26 04:46:29;;;;;;;12.02;6.72;;;0.50;99.90;;;;;;4951129;29;20228;-69
2023/01/26 04:48:57;;;;;;;13.65;6.55;;;0.50;99.90;;;;;;4950453;29;20207;-69
2023/01/26 04:51:24;;;;;;;14.13;7.10;;;0.50;99.90;;;;;;4949290;29;20196;-69
2023/01/26 04:53:51;;;;;;;9.57;6.93;;;0.40;99.90;;;;;;4951289;29;20208;-69
2023/01/26 04:56:23;;;;;;;12.27;5.90;;;0.50;99.90;;;;;;4951870;29;20734;-69
2023/01/26 04:58:50;;;;;;;11.88;7.35;;;0.40;99.90;;;;;;4950582;29;20631;-69
2023/01/26 05:01:17;;;;;;;14.63;7.38;;;0.40;99.90;;;;;;4950826;29;20201;-68
2023/01/26 05:03:43;;;;;;;16.20;7.05;;;0.40;99.90;;;;;;4950794;29;20204;-69
2023/01/26 05:06:10;;;;;;;10.90;5.95;;;0.40;99.90;;;;;;4950979;29;20241;-69
2023/01/26 05:08:38;;;;;;;9.85;6.22;;;0.40;99.90;;;;;;4950208;29;20201;-69
2023/01/26 05:11:05;;;;;;;12.10;6.07;;;0.30;99.90;;;;;;4950899;29;20239;-69
2023/01/26 05:13:34;;;;;;;15.85;8.30;;;0.30;99.90;;;;;;4949533;29;20601;-69
2023/01/26 05:16:01;;;;;;;13.23;6.68;;;0.30;99.90;;;;;;4951823;29;20217;-69
2023/01/26 05:18:28;;;;;;;12.48;5.90;;;0.40;99.90;;;;;;4948543;29;20220;-69
2023/01/26 05:20:55;;;;;;;14.25;6.45;;;0.40;99.90;;;;;;4951216;29;20555;-68
2023/01/26 05:23:21;;;;;;;6.70;5.20;;;0.40;99.90;;;;;;4951637;29;20197;-69
2023/01/26 05:25:48;;;;;;;16.27;8.57;;;0.30;99.90;;;;;;4950322;29;20835;-69
2023/01/26 05:28:15;;;;;;;12.93;6.55;;;0.30;99.90;;;;;;4951114;29;20189;-68
2023/01/26 05:30:43;;;;;;;12.57;6.22;;;0.30;99.90;;;;;;4950227;28;20196;-70
2023/01/26 05:33:11;;;;;;;8.70;5.38;;;0.40;99.90;;;;;;4952874;29;20208;-69
2023/01/26 05:35:37;;;;;;;10.25;5.75;;;0.40;99.90;;;;;;4952554;29;20220;-70
2023/01/26 05:38:04;;;;;;;10.70;6.07;;;0.40;99.90;;;;;;4953015;29;20220;-69
2023/01/26 05:40:31;;;;;;;11.23;6.75;;;0.40;99.90;;;;;;4953972;29;20204;-70
2023/01/26 05:42:57;;;;;;;8.63;5.05;;;0.30;99.90;;;;;;4955196;29;20219;-70
2023/01/26 05:45:24;;;;;;;10.32;5.60;;;0.30;99.90;;;;;;4955410;29;20618;-70
2023/01/26 05:47:52;;;;;;;13.40;6.15;;;0.30;99.90;;;;;;4954926;29;20220;-69
2023/01/26 05:50:19;;;;;;;11.00;6.05;;;0.30;99.90;;;;;;4954706;29;20212;-69
2023/01/26 05:52:46;;;;;;;11.10;6.60;;;0.30;99.90;;;;;;4955456;28;20586;-69
2023/01/26 05:55:14;;;;;;;9.32;5.22;;;0.20;99.90;;;;;;4974736;28;20235;-70
2023/01/26 05:57:41;;;;;;;11.25;5.68;;;0.20;99.90;;;;;;4974134;28;20204;-70
2023/01/26 06:00:09;;;;;;;9.60;5.20;;;0.20;99.90;;;;;;4973515;28;20219;-69
2023/01/26 06:02:35;;;;;;;8.55;5.57;;;0.20;99.90;;;;;;4973977;28;20211;-69
2023/01/26 06:05:04;;;;;;;10.75;6.43;;;0.20;99.90;;;;;;4974192;28;20612;-69
2023/01/26 06:07:31;;;;;;;8.38;5.10;;;0.20;99.90;;;;;;4971956;28;20219;-69
2023/01/26 06:09:57;;;;;;;14.27;5.97;;;0.20;99.90;;;;;;4972470;28;20200;-69
2023/01/26 06:12:24;;;;;;;6.65;3.58;;;0.20;99.90;;;;;;4973419;28;20216;-69
2023/01/26 06:14:51;;;;;;;12.05;6.28;;;0.20;99.90;;;;;;4974078;28;20574;-69
2023/01/26 06:17:18;;;;;;;7.82;5.25;;;0.10;99.90;;;;;;4974006;28;20204;-69
2023/01/26 06:19:45;;;;;;;12.18;5.57;;;0.10;99.90;;;;;;4973182;28;20250;-69
2023/01/26 06:22:14;;;;;;;11.07;5.53;;;0.10;99.90;;;;;;4974185;28;20210;-69
2023/01/26 06:24:40;;;;;;;10.65;6.07;;;0.10;99.90;;;;;;4973164;28;20207;-69
2023/01/26 06:27:11;;;;;;;12.82;5.28;;;0.20;99.90;;;;;;4974644;28;20586;-70
2023/01/26 06:29:38;;;;;;;7.50;4.43;;;0.20;99.90;;;;;;4973314;28;20195;-69
2023/01/26 06:32:05;;;;;;;11.38;6.05;;;0.20;99.90;;;;;;4974437;28;20204;-69
2023/01/26 06:34:32;;;;;;;8.65;4.80;;;0.20;99.90;;;;;;4974160;28;20208;-69
2023/01/26 06:36:59;;;;;;;9.25;5.43;;;0.20;99.90;;;;;;4973023;28;20228;-69
2023/01/26 06:39:27;;;;;;;8.30;4.28;;;0.10;99.90;;;;;;4973462;28;20227;-69
2023/01/26 06:41:54;;;;;;;7.20;5.45;;;0.10;99.90;;;;;;4973543;28;20204;-69
2023/01/26 06:44:20;;;;;;;11.75;6.15;;;0.00;99.90;;;;;;4973394;28;20208;-69
2023/01/26 06:46:47;;;;;;;10.10;5.10;;;0.00;99.90;;;;;;4973574;28;20242;-69
2023/01/26 06:49:15;;;;;;;9.60;4.88;;;0.00;99.90;;;;;;4973089;28;20246;-69
2023/01/26 06:51:47;;;;;;;7.40;4.45;;;0.00;99.90;;;;;;4973789;28;20303;-69
2023/01/26 06:54:14;;;;;;;8.73;5.47;;;0.00;99.90;;;;;;4973857;28;20215;-69
2023/01/26 06:56:42;;;;;;;11.38;6.38;;;0.00;99.90;;;;;;4973614;28;20247;-69
2023/01/26 06:59:10;;;;;;;9.30;5.00;;;0.00;99.90;;;;;;4973172;28;20223;-68
2023/01/26 07:01:39;;;;;;;8.23;4.55;;;0.00;99.90;;;;;;4967997;28;20733;-69
2023/01/26 07:04:06;;;;;;;7.18;4.35;;;0.00;99.90;;;;;;4954293;29;20208;-69
2023/01/26 07:06:33;;;;;;;7.90;4.63;;;-0.10;99.90;;;;;;4953765;29;20726;-69
2023/01/26 07:09:00;;;;;;;9.32;5.32;;;-0.10;99.90;;;;;;4953971;29;20208;-69
2023/01/26 07:11:29;;;;;;;7.55;5.50;;;-0.10;99.90;;;;;;4953935;29;20207;-69
2023/01/26 07:13:57;;;;;;;8.40;5.45;;;-0.10;99.90;;;;;;4954042;29;20204;-69
2023/01/26 07:16:23;;;;;;;8.90;4.90;;;-0.10;99.90;;;;;;4954085;29;20228;-69
2023/01/26 07:18:50;;;;;;;9.45;5.32;;;-0.10;99.90;;;;;;4953418;29;20227;-69
2023/01/26 07:21:18;;;;;;;9.20;5.47;;;-0.10;99.90;;;;;;4954046;29;20616;-69
2023/01/26 07:23:45;;;;;;;12.15;5.63;;;0.00;99.90;;;;;;4953491;29;20212;-69
2023/01/26 07:26:13;;;;;;;11.05;5.13;;;0.00;99.90;;;;;;4953613;29;20220;-69
2023/01/26 07:28:39;;;;;;;8.40;5.00;;;0.00;99.90;;;;;;4953089;29;20205;-69
2023/01/26 07:31:08;;;;;;;7.57;4.45;;;0.00;99.90;;;;;;4953925;29;20668;-69
2023/01/26 07:33:36;;;;;;;6.90;4.97;;;0.00;99.90;;;;;;4953718;29;20211;-69
2023/01/26 07:36:03;;;;;;;8.75;5.55;;;0.00;99.90;;;;;;4954582;29;20224;-69
2023/01/26 07:38:32;;;;;;;11.90;5.28;;;0.00;99.90;;;;;;4952731;29;20224;-69
2023/01/26 07:40:58;;;;;;;8.63;5.68;;;-0.10;99.90;;;;;;4953491;29;20212;-69
2023/01/26 07:43:25;;;;;;;14.20;6.20;;;-0.10;99.90;;;;;;4953542;29;20710;-69
2023/01/26 07:45:54;;;;;;;7.10;4.70;;;-0.10;99.90;;;;;;4953360;29;20899;-69
2023/01/26 07:48:24;;;;;;;12.70;5.40;;;-0.10;99.90;;;;;;4952920;29;20211;-69
2023/01/26 07:50:50;;;;;;;9.32;6.25;;;-0.10;99.90;;;;;;4953309;29;20299;-69
2023/01/26 07:53:21;;;;;;;12.05;6.45;;;-0.10;99.90;;;;;;4953242;28;20200;-69
2023/01/26 07:55:48;;;;;;;16.40;6.93;;;0.00;99.90;;;;;;4953082;29;20232;-69
2023/01/26 07:58:16;;;;;;;7.55;5.25;;;0.00;99.90;;;;;;4953249;29;20287;-68
2023/01/26 08:00:45;;;;;;;9.23;5.30;;;0.00;99.90;;;;;;4952723;29;20666;-68
2023/01/26 08:03:12;;;;;;;8.90;5.65;;;0.00;99.90;;;;;;4953118;29;20680;-68
2023/01/26 08:05:42;;;;;;;13.93;5.57;;;0.00;99.90;;;;;;4952679;29;20257;-68
2023/01/26 08:08:09;;;;;;;10.80;6.35;;;0.00;99.90;;;;;;4953026;29;20722;-68
2023/01/26 08:10:36;;;;;;;9.30;5.68;;;0.00;99.90;;;;;;4952806;29;20242;-68
2023/01/26 08:13:02;;;;;;;10.98;5.72;;;0.00;99.90;;;;;;4952866;29;20205;-68
2023/01/26 08:15:29;;;;;;;9.93;5.63;;;0.00;99.90;;;;;;4952457;29;20220;-68
2023/01/26 08:17:56;;;;;;;11.77;6.40;;;0.00;99.90;;;;;;4953057;29;20208;-68
2023/01/26 08:20:23;;;;;;;10.82;6.25;;;0.00;99.90;;;;;;4952451;28;20575;-68
2023/01/26 08:22:51;;;;;;;9.75;5.68;;;-0.10;99.90;;;;;;4952931;29;20212;-69
2023/01/26 08:25:18;;;;;;;9.35;4.72;;;-0.10;99.90;;;;;;4952708;29;20232;-68
2023/01/26 08:27:44;;;;;;;9.82;5.82;;;-0.20;99.90;;;;;;4952297;29;20216;-68
2023/01/26 08:30:13;;;;;;;9.23;4.78;;;-0.10;99.90;;;;;;4952220;29;20668;-68
2023/01/26 08:32:40;;;;;;;9.93;5.90;;;-0.10;99.90;;;;;;4952655;29;20211;-68
2023/01/26 08:35:07;;;;;;;8.52;5.15;;;-0.10;99.90;;;;;;4952696;29;20603;-68
2023/01/26 08:37:34;;;;;;;11.25;6.40;;;-0.10;99.90;;;;;;4952479;29;20211;-69
2023/01/26 08:40:02;;;;;;;9.32;5.53;;;-0.10;99.90;;;;;;4951869;29;20231;-69
2023/01/26 08:42:29;;;;;;;8.40;5.68;;;-0.10;99.90;;;;;;4952300;29;20208;-69
2023/01/26 08:44:55;;;;;;;13.30;6.53;;;-0.10;99.90;;;;;;4952446;29;20224;-68
2023/01/26 08:47:22;;;;;;;14.25;6.30;;;-0.10;99.90;;;;;;4952531;29;20208;-68
2023/01/26 08:49:49;;;;;;;8.88;5.05;;;-0.10;99.90;;;;;;4951676;29;20663;-69
2023/01/26 08:52:15;;;;;;;7.18;5.15;;;-0.10;99.90;;;;;;4952247;29;20626;-69
2023/01/26 08:54:42;;;;;;;9.07;5.30;;;-0.10;99.90;;;;;;4951909;29;20599;-69
2023/01/26 08:57:11;;;;;;;7.70;4.00;;;-0.10;99.90;;;;;;4952665;28;20212;-69
2023/01/26 08:59:37;;;;;;;6.32;5.18;;;0.00;99.90;;;;;;4951469;29;20260;-69
2023/01/26 09:02:04;;;;;;;12.65;5.50;;;0.00;99.90;;;;;;4952399;29;20229;-69
2023/01/26 09:04:31;;;;;;;7.40;4.70;;;0.00;99.90;;;;;;4951787;29;20698;-69
2023/01/26 09:06:57;;;;;;;8.50;5.15;;;0.10;99.90;;;;;;4951561;28;20228;-69
2023/01/26 09:09:24;;;;;;;10.77;6.18;;;0.00;99.90;;;;;;4951829;29;20208;-69
2023/01/26 09:11:51;;;;;;;5.57;3.83;;;0.00;99.90;;;;;;4951858;29;20208;-69
2023/01/26 09:14:19;;;;;;;8.82;4.35;;;0.10;99.90;;;;;;4949942;28;20223;-69
2023/01/26 09:16:45;;;;;;;5.85;3.55;;;0.10;99.90;;;;;;4951579;29;20231;-68
2023/01/26 09:19:12;;;;;;;8.43;5.70;;;0.10;99.90;;;;;;4951416;29;20594;-69
2023/01/26 09:21:39;;;;;;;7.68;4.68;;;0.10;99.90;;;;;;4951832;29;20204;-69
2023/01/26 09:24:06;;;;;;;8.40;4.55;;;0.00;99.90;;;;;;4948298;28;20200;-69
2023/01/26 09:26:33;;;;;;;6.75;4.47;;;0.00;99.90;;;;;;4951052;29;20303;-69
2023/01/26 09:29:00;;;;;;;6.95;4.32;;;0.00;99.90;;;;;;4949475;28;20227;-69
2023/01/26 09:31:28;;;;;;;6.90;4.70;;;0.00;99.90;;;;;;4950787;29;20219;-69
2023/01/26 09:33:55;;;;;;;7.32;4.57;;;0.10;99.90;;;;;;4951085;29;20243;-69
2023/01/26 09:36:21;;;;;;;9.60;5.88;;;0.10;99.90;;;;;;4951165;29;20220;-69
2023/01/26 09:38:49;;;;;;;9.68;5.18;;;0.10;99.90;;;;;;4947846;28;20205;-69
2023/01/26 09:41:34;;;;;;;8.07;5.20;;;0.10;99.90;;;;;;4950205;28;20228;-69
2023/01/26 09:44:08;;;;;;;8.55;4.50;;;0.20;99.90;;;;;;4951729;28;20231;-69
2023/01/26 09:46:51;;;;;;;10.60;4.97;;;0.20;99.90;;;;;;4951284;29;20232;-68
2023/01/26 09:49:22;;;;;;;5.95;4.18;;;0.20;99.90;;;;;;4951293;29;20334;-68
2023/01/26 09:51:55;;;;;;;5.32;4.82;;;0.20;99.90;;;;;;4951631;29;20240;-68
2023/01/26 09:54:32;;;;;;;6.57;4.22;;;0.20;99.90;;;;;;4951153;29;20312;-68
2023/01/26 09:57:02;;;;;;;7.85;5.80;;;0.20;99.90;;;;;;4951754;29;20663;-68
2023/01/26 09:59:36;;;;;;;7.40;4.57;;;0.20;99.90;;;;;;4950747;29;20284;-69
2023/01/26 10:02:18;;;;;;;8.68;4.15;;;0.10;99.90;;;;;;4951040;29;20295;-69
2023/01/26 10:04:49;;;;;;;5.53;3.67;;;0.10;99.90;;;;;;4950839;29;20564;-69
2023/01/26 10:07:17;;;;;;;6.85;3.53;;;0.10;99.90;;;;;;4951361;29;20672;-69
2023/01/26 10:09:47;;;;;;;8.43;4.75;;;0.10;99.90;;;;;;4949780;28;20208;-69
2023/01/26 10:12:18;;;;;;;8.27;4.90;;;0.00;99.90;;;;;;4950843;29;20684;-69
2023/01/26 10:14:49;;;;;;;9.38;5.70;;;0.00;99.90;;;;;;4950550;29;20688;-69
2023/01/26 10:17:21;;;;;;;7.22;4.38;;;0.00;99.90;;;;;;4951494;28;20675;-69
2023/01/26 10:19:52;;;;;;;8.20;5.20;;;0.00;99.90;;;;;;4934305;29;20252;-69
2023/01/26 10:22:26;;;;;;;9.93;5.00;;;0.00;99.90;;;;;;4935706;29;20205;-70
2023/01/26 10:24:56;;;;;;;8.50;4.97;;;0.00;99.90;;;;;;4934801;29;20792;-69
2023/01/26 10:27:23;;;;;;;9.45;5.60;;;-0.10;99.90;;;;;;4935468;29;20209;-69
2023/01/26 10:29:50;;;;;;;11.75;5.85;;;-0.10;99.90;;;;;;4934266;29;20212;-69
2023/01/26 10:32:18;;;;;;;7.53;5.10;;;-0.10;99.90;;;;;;4934767;29;20213;-69
2023/01/26 10:34:46;;;;;;;7.03;4.90;;;0.00;99.90;;;;;;4934773;29;20209;-69
2023/01/26 10:37:20;;;;;;;7.53;4.43;;;-0.10;99.90;;;;;;4935127;29;20209;-69
2023/01/26 10:40:00;;;;;;;8.00;4.80;;;-0.10;99.90;;;;;;4933998;29;20221;-69
2023/01/26 10:42:29;;;;;;;6.35;4.57;;;0.00;99.90;;;;;;4934388;29;20209;-69
2023/01/26 10:44:57;;;;;;;7.47;4.55;;;0.00;99.90;;;;;;4934755;29;20256;-69
2023/01/26 10:47:25;;;;;;;6.07;4.30;;;0.00;99.90;;;;;;4934745;29;20680;-69
2023/01/26 10:49:52;;;;;;;7.93;4.82;;;0.00;99.90;;;;;;4933845;29;20209;-69
2023/01/26 10:52:21;;;;;;;9.55;5.82;;;0.00;99.90;;;;;;4935141;29;20205;-69
2023/01/26 10:54:49;;;;;;;6.55;5.15;;;0.00;99.90;;;;;;4942568;28;20219;-69
2023/01/26 10:57:25;;;;;;;8.98;4.75;;;0.00;99.90;;;;;;4954148;29;20200;-69
2023/01/26 10:59:56;;;;;;;8.85;4.35;;;0.00;99.90;;;;;;4953180;29;20922;-69
2023/01/26 11:02:28;;;;;;;7.38;4.82;;;0.00;99.90;;;;;;4953856;28;20559;-69
2023/01/26 11:05:19;;;;;;;6.75;4.68;;;0.00;99.90;;;;;;4973040;28;20331;-69
2023/01/26 11:07:47;;;;;;;8.70;4.43;;;0.00;99.90;;;;;;4965234;28;20219;-69
2023/01/26 11:10:20;;;;;;;7.13;3.80;;;0.00;99.90;;;;;;4972660;28;20200;-69
2023/01/26 11:12:47;;;;;;;9.93;4.80;;;-0.10;99.90;;;;;;4972485;28;20207;-69
2023/01/26 11:15:17;;;;;;;7.85;3.60;;;-0.10;99.90;;;;;;4972576;28;20250;-69
2023/01/26 11:17:51;;;;;;;8.20;4.25;;;0.00;99.90;;;;;;4972390;28;20218;-69
2023/01/26 11:20:37;;;;;;;4.25;3.30;;;-0.20;99.90;;;;;;4972154;28;20258;-69
2023/01/26 11:23:11;;;;;;;8.65;3.80;;;-0.20;99.90;;;;;;4972676;28;20679;-69
2023/01/26 11:25:49;;;;;;;7.60;4.90;;;-0.10;99.90;;;;;;4972270;28;20224;-69
2023/01/26 11:28:32;;;;;;;6.68;3.65;;;-0.10;99.90;;;;;;4972362;28;20753;-69
2023/01/26 11:31:16;;;;;;;5.70;3.47;;;-0.10;99.90;;;;;;4971769;28;20196;-69
2023/01/26 11:33:54;;;;;;;6.65;4.15;;;-0.20;99.90;;;;;;4972513;28;20207;-69
2023/01/26 11:36:33;;;;;;;7.47;4.85;;;-0.20;99.90;;;;;;4965626;28;20228;-69
2023/01/26 11:39:09;;;;;;;9.63;4.38;;;-0.20;99.90;;;;;;4950730;28;20292;-69
2023/01/26 11:41:48;;;;;;;7.43;3.80;;;-0.10;99.90;;;;;;4952711;29;20306;-69
2023/01/26 11:44:45;;;;;;;7.65;4.40;;;-0.10;99.90;;;;;;4952730;29;20204;-69
2023/01/26 11:47:35;;;;;;;7.80;4.47;;;-0.20;99.90;;;;;;4951746;29;20223;-69
2023/01/26 11:50:18;;;;;;;8.75;4.57;;;-0.30;99.90;;;;;;4952135;29;20234;-68
2023/01/26 11:52:54;;;;;;;7.80;4.55;;;-0.40;99.90;;;;;;4952312;29;20699;-68
2023/01/26 11:55:30;;;;;;;6.13;3.80;;;-0.40;99.90;;;;;;4951992;29;20223;-68
2023/01/26 11:58:12;;;;;;;6.65;4.68;;;-0.40;99.90;;;;;;4952733;29;20204;-70
2023/01/26 12:00:42;;;;;;;5.93;4.93;;;-0.30;99.90;;;;;;4951953;29;20225;-69
2023/01/26 12:03:20;;;;;;;6.15;4.32;;;-0.30;99.90;;;;;;4952135;29;20204;-70
2023/01/26 12:05:52;;;;;;;7.30;4.97;;;-0.30;99.90;;;;;;4952081;29;20640;-70
2023/01/26 12:08:24;;;;;;;9.30;4.95;;;-0.30;99.90;;;;;;4949458;29;20208;-69
2023/01/26 12:11:21;;;;;;;10.93;6.28;;;-0.30;99.90;;;;;;4952486;29;20570;-69
2023/01/26 12:13:51;;;;;;;9.98;4.97;;;-0.30;99.90;;;;;;4951910;29;20215;-70
2023/01/26 12:16:28;;;;;;;11.25;6.72;;;-0.30;99.90;;;;;;4952332;29;20229;-70
2023/01/26 12:19:02;;;;;;;12.60;5.40;;;-0.30;99.90;;;;;;4950845;29;20613;-69
2023/01/26 12:21:31;;;;;;;10.43;4.72;;;-0.40;99.90;;;;;;4951924;29;20723;-70
2023/01/26 12:24:01;;;;;;;7.93;5.55;;;-0.50;99.90;;;;;;4951107;29;20211;-69
2023/01/26 12:26:35;;;;;;;8.02;4.05;;;-0.40;99.90;;;;;;4951819;29;20252;-70
2023/01/26 12:29:08;;;;;;;9.40;5.20;;;-0.40;99.90;;;;;;4951656;29;20788;-69
2023/01/26 12:31:43;;;;;;;7.35;4.50;;;-0.40;99.90;;;;;;4951097;29;20196;-69
2023/01/26 12:34:13;;;;;;;7.53;4.75;;;-0.30;99.90;;;;;;4951974;29;20204;-69
2023/01/26 12:36:49;;;;;;;10.23;5.30;;;-0.40;99.90;;;;;;4951638;29;20229;-70
2023/01/26 12:39:27;;;;;;;6.55;4.50;;;-0.40;99.90;;;;;;4951167;29;20211;-70
2023/01/26 12:42:17;;;;;;;8.13;4.70;;;-0.30;99.90;;;;;;4950865;28;20602;-70
2023/01/26 12:44:46;;;;;;;5.80;3.67;;;-0.30;99.90;;;;;;4950572;29;20219;-70
2023/01/26 12:47:19;;;;;;;8.68;4.63;;;-0.30;99.90;;;;;;4951973;29;20212;-70
2023/01/26 12:49:52;;;;;;;7.47;4.60;;;-0.40;99.90;;;;;;4950813;29;20539;-70
2023/01/26 12:52:26;;;;;;;6.55;4.53;;;-0.40;99.90;;;;;;4951641;29;20211;-70
2023/01/26 12:54:59;;;;;;;6.45;4.82;;;-0.30;99.90;;;;;;4949080;28;20240;-69
2023/01/26 12:57:34;;;;;;;8.70;4.75;;;-0.30;99.90;;;;;;4966580;28;20667;-70
2023/01/26 13:00:07;;;;;;;10.68;4.57;;;-0.40;99.90;;;;;;4950226;28;20219;-69
2023/01/26 13:02:36;;;;;;;13.45;5.90;;;-0.40;99.90;;;;;;4953228;28;20219;-69
2023/01/26 13:05:06;;;;;;;11.68;4.45;;;-0.40;99.90;;;;;;4971192;28;20223;-68
2023/01/26 13:07:36;;;;;;;7.30;4.20;;;-0.40;99.90;;;;;;4967972;28;20212;-68
2023/01/26 13:10:39;;;;;;;9.20;4.78;;;-0.40;99.90;;;;;;4969793;28;20207;-69
2023/01/26 13:13:28;;;;;;;10.27;5.82;;;-0.40;99.90;;;;;;4967689;28;20208;-69
2023/01/26 13:16:28;;;;;;;8.00;5.18;;;-0.30;99.90;;;;;;4970042;28;20223;-69
2023/01/26 13:18:56;;;;;;;6.55;3.97;;;-0.30;99.90;;;;;;4969727;28;20200;-69
2023/01/26 13:21:40;;;;;;;6.10;4.05;;;-0.40;99.90;;;;;;4969814;28;20322;-69
2023/01/26 13:24:41;;;;;;;6.18;3.95;;;-0.30;99.90;;;;;;4970496;28;20214;-69
2023/01/26 13:27:29;;;;;;;8.75;4.70;;;-0.30;99.90;;;;;;4970420;28;20286;-69
2023/01/26 13:29:56;;;;;;;8.50;5.28;;;-0.30;99.90;;;;;;4969889;28;20204;-70
2023/01/26 13:32:56;;;;;;;7.75;4.80;;;-0.30;99.90;;;;;;4969802;28;20204;-69
2023/01/26 13:35:26;;;;;;;6.53;3.65;;;-0.30;99.90;;;;;;4965853;28;20224;-69
2023/01/26 13:37:59;;;;;;;10.45;4.65;;;-0.30;99.90;;;;;;4969953;28;20214;-69
2023/01/26 13:40:30;;;;;;;8.25;4.38;;;-0.20;99.90;;;;;;4969632;28;20582;-70
2023/01/26 13:43:03;;;;;;;6.60;5.00;;;-0.30;99.90;;;;;;4970134;28;20213;-69
2023/01/26 13:45:33;;;;;;;7.15;4.43;;;-0.40;99.90;;;;;;4952324;28;20610;-68
2023/01/26 13:48:04;;;;;;;7.68;4.07;;;-0.40;99.90;;;;;;4948488;29;20209;-70